createdAt,value
2018-09-25T00:00:34.396Z,8.30
2018-09-25T00:03:08.354Z,8.20
2018-09-25T00:05:42.290Z,8.20
2018-09-25T00:08:16.224Z,8.10
2018-09-25T00:10:50.157Z,8.00
2018-09-25T00:13:23.984Z,8.00
2018-09-25T00:15:57.896Z,8.00
2018-09-25T00:18:31.859Z,8.00
2018-09-25T00:21:05.809Z,8.00
2018-09-25T00:23:39.778Z,7.80
2018-09-25T00:26:13.535Z,7.80
2018-09-25T00:28:47.414Z,7.80
2018-09-25T00:31:21.250Z,7.70
2018-09-25T00:33:55.150Z,7.70
2018-09-25T00:36:29.694Z,7.60
2018-09-25T00:39:03.741Z,7.60
2018-09-25T00:41:37.608Z,7.40
2018-09-25T00:44:11.401Z,7.40
2018-09-25T00:46:45.544Z,7.30
2018-09-25T00:49:19.365Z,7.40
2018-09-25T00:51:53.121Z,7.30
2018-09-25T00:54:26.852Z,7.40
2018-09-25T00:57:00.761Z,7.40
2018-09-25T00:59:34.444Z,7.30
2018-09-25T01:02:08.397Z,7.20
2018-09-25T01:04:42.402Z,7.20
2018-09-25T01:07:16.573Z,7.10
2018-09-25T01:09:50.242Z,7.10
2018-09-25T01:12:24.232Z,7.10
2018-09-25T01:14:57.970Z,7.10
2018-09-25T01:17:31.965Z,7.10
2018-09-25T01:20:05.732Z,7.00
2018-09-25T01:22:39.493Z,6.90
2018-09-25T01:25:13.492Z,6.80
2018-09-25T01:27:47.424Z,6.70
2018-09-25T01:30:21.390Z,6.80
2018-09-25T01:32:55.287Z,6.90
2018-09-25T01:35:29.128Z,6.90
2018-09-25T01:38:03.080Z,6.80
2018-09-25T01:40:36.952Z,6.80
2018-09-25T01:43:10.827Z,6.70
2018-09-25T01:45:44.635Z,6.70
2018-09-25T01:48:18.456Z,6.70
2018-09-25T01:50:52.368Z,6.70
2018-09-25T01:53:26.345Z,6.70
2018-09-25T01:56:00.200Z,6.70
2018-09-25T01:58:34.101Z,6.70
2018-09-25T02:01:07.897Z,6.60
2018-09-25T02:03:41.787Z,6.60
2018-09-25T02:06:15.593Z,6.50
2018-09-25T02:08:49.328Z,6.50
2018-09-25T02:11:23.328Z,6.50
2018-09-25T02:13:57.141Z,6.50
2018-09-25T02:16:31.113Z,6.50
2018-09-25T02:19:05.104Z,6.40
2018-09-25T02:21:39.073Z,6.40
2018-09-25T02:24:12.945Z,6.40
2018-09-25T02:26:46.953Z,6.40
2018-09-25T02:29:20.870Z,6.40
2018-09-25T02:31:54.689Z,6.30
2018-09-25T02:34:28.482Z,6.30
2018-09-25T02:37:02.337Z,6.20
2018-09-25T02:39:36.253Z,6.20
2018-09-25T02:42:09.969Z,6.10
2018-09-25T02:44:43.936Z,6.20
2018-09-25T02:47:17.859Z,6.20
2018-09-25T02:49:51.674Z,6.20
2018-09-25T02:52:25.640Z,6.10
2018-09-25T02:54:59.587Z,6.00
2018-09-25T02:57:33.421Z,6.10
2018-09-25T03:00:07.139Z,6.10
2018-09-25T03:02:41.148Z,6.10
2018-09-25T03:05:15.192Z,6.10
2018-09-25T03:07:49.353Z,6.00
2018-09-25T03:10:23.280Z,6.00
2018-09-25T03:12:57.239Z,5.90
2018-09-25T03:15:31.197Z,5.70
2018-09-25T03:18:05.206Z,5.90
2018-09-25T03:20:39.052Z,5.80
2018-09-25T03:23:12.985Z,5.80
2018-09-25T03:25:47.010Z,5.80
2018-09-25T03:28:20.843Z,5.90
2018-09-25T03:30:54.632Z,5.90
2018-09-25T03:33:28.593Z,5.80
2018-09-25T03:36:02.401Z,5.80
2018-09-25T03:38:36.439Z,5.80
2018-09-25T03:41:10.297Z,5.90
2018-09-25T03:43:44.293Z,5.90
2018-09-25T03:46:18.082Z,5.80
2018-09-25T03:48:52.017Z,5.80
2018-09-25T03:51:25.971Z,5.80
2018-09-25T03:53:59.883Z,5.60
2018-09-25T03:56:33.651Z,5.70
2018-09-25T03:59:07.566Z,5.70
2018-09-25T04:01:41.430Z,5.70
2018-09-25T04:04:15.168Z,5.70
2018-09-25T04:06:49.013Z,5.70
2018-09-25T04:09:22.880Z,5.70
2018-09-25T04:11:56.969Z,5.60
2018-09-25T04:14:30.780Z,5.50
2018-09-25T04:17:04.530Z,5.60
2018-09-25T04:19:38.397Z,5.60
2018-09-25T04:22:12.598Z,5.50
2018-09-25T04:24:49.178Z,5.50
2018-09-25T04:27:23.697Z,5.50
2018-09-25T04:29:57.522Z,5.40
2018-09-25T04:32:31.570Z,5.40
2018-09-25T04:35:05.485Z,5.40
2018-09-25T04:37:39.404Z,5.40
2018-09-25T04:40:13.351Z,5.40
2018-09-25T04:42:47.109Z,5.40
2018-09-25T04:45:21.054Z,5.50
2018-09-25T04:47:54.901Z,5.50
2018-09-25T04:50:28.605Z,5.50
2018-09-25T04:53:02.612Z,5.50
2018-09-25T04:55:36.532Z,5.40
2018-09-25T04:58:10.504Z,5.30
2018-09-25T05:00:44.425Z,5.30
2018-09-25T05:03:18.616Z,5.30
2018-09-25T05:05:53.557Z,5.30
2018-09-25T05:08:27.326Z,5.30
2018-09-25T05:11:01.346Z,5.30
2018-09-25T05:13:35.129Z,5.30
2018-09-25T05:16:08.918Z,5.30
2018-09-25T05:18:42.856Z,5.30
2018-09-25T05:21:16.906Z,5.30
2018-09-25T05:23:50.717Z,5.30
2018-09-25T05:26:24.565Z,5.30
2018-09-25T05:28:58.510Z,5.20
2018-09-25T05:31:32.342Z,5.20
2018-09-25T05:34:06.232Z,5.30
2018-09-25T05:36:40.024Z,5.30
2018-09-25T05:39:14.368Z,5.30
2018-09-25T05:41:48.804Z,5.20
2018-09-25T05:44:22.728Z,5.30
2018-09-25T05:46:56.494Z,5.30
2018-09-25T05:49:30.738Z,5.20
2018-09-25T05:52:04.622Z,5.30
2018-09-25T05:54:38.469Z,5.20
2018-09-25T05:57:12.353Z,5.30
2018-09-25T05:59:46.307Z,5.30
2018-09-25T06:02:20.156Z,5.20
2018-09-25T06:04:53.932Z,5.30
2018-09-25T06:07:27.860Z,5.30
2018-09-25T06:10:01.814Z,5.40
2018-09-25T06:12:35.605Z,5.40
2018-09-25T06:15:09.748Z,5.30
2018-09-25T06:17:43.652Z,5.40
2018-09-25T06:20:17.577Z,5.40
2018-09-25T06:22:51.413Z,5.40
2018-09-25T06:25:25.190Z,5.40
2018-09-25T06:27:59.168Z,5.50
2018-09-25T06:30:32.865Z,5.50
2018-09-25T06:33:06.770Z,5.40
2018-09-25T06:35:40.621Z,5.50
2018-09-25T06:38:14.484Z,6.00
2018-09-25T06:40:48.427Z,6.60
2018-09-25T06:43:22.330Z,7.50
2018-09-25T06:45:56.308Z,8.20
2018-09-25T06:48:30.281Z,9.00
2018-09-25T06:51:04.303Z,9.80
2018-09-25T06:53:38.028Z,10.50
2018-09-25T06:56:12.039Z,11.30
2018-09-25T06:58:45.988Z,11.80
2018-09-25T07:01:19.966Z,12.50
2018-09-25T07:03:53.805Z,13.20
2018-09-25T07:06:27.598Z,13.60
2018-09-25T07:09:02.070Z,14.10
2018-09-25T07:11:35.900Z,14.50
2018-09-25T07:14:10.484Z,13.70
2018-09-25T07:16:44.368Z,14.00
2018-09-25T07:19:18.372Z,14.80
2018-09-25T07:21:52.259Z,16.00
2018-09-25T07:24:26.257Z,16.80
2018-09-25T07:27:00.039Z,17.60
2018-09-25T07:29:34.032Z,18.10
2018-09-25T07:32:08.018Z,18.10
2018-09-25T07:34:42.309Z,18.60
2018-09-25T07:37:16.240Z,18.70
2018-09-25T07:39:50.254Z,18.10
2018-09-25T07:42:24.141Z,18.20
2018-09-25T07:44:57.932Z,19.30
2018-09-25T07:47:31.876Z,19.10
2018-09-25T07:50:05.845Z,19.70
2018-09-25T07:52:39.619Z,20.40
2018-09-25T07:55:13.577Z,21.30
2018-09-25T07:57:47.244Z,21.80
2018-09-25T08:00:22.256Z,22.40
2018-09-25T08:02:56.222Z,22.80
2018-09-25T08:05:30.230Z,23.50
2018-09-25T08:08:04.209Z,23.80
2018-09-25T08:10:38.173Z,24.00
2018-09-25T08:13:13.585Z,24.00
2018-09-25T08:15:47.667Z,23.90
2018-09-25T08:18:21.568Z,24.10
2018-09-25T08:20:55.422Z,24.50
2018-09-25T08:23:29.341Z,25.00
2018-09-25T08:26:03.364Z,25.30
2018-09-25T08:28:37.175Z,25.00
2018-09-25T08:31:11.308Z,25.20
2018-09-25T08:33:45.102Z,24.50
2018-09-25T08:36:18.868Z,24.30
2018-09-25T08:38:52.868Z,24.50
2018-09-25T08:41:26.873Z,24.50
2018-09-25T08:44:00.845Z,24.30
2018-09-25T08:46:34.828Z,24.60
2018-09-25T08:49:08.808Z,25.40
2018-09-25T08:51:42.744Z,24.60
2018-09-25T08:54:16.465Z,24.70
2018-09-25T08:56:50.401Z,24.70
2018-09-25T08:59:24.321Z,24.40
2018-09-25T09:01:58.133Z,23.80
2018-09-25T09:04:32.081Z,23.20
2018-09-25T09:07:05.994Z,24.20
2018-09-25T09:09:39.941Z,25.10
2018-09-25T09:12:13.849Z,24.90
2018-09-25T09:14:47.817Z,24.30
2018-09-25T09:17:23.361Z,23.70
2018-09-25T09:19:57.265Z,24.00
2018-09-25T09:22:31.089Z,24.50
2018-09-25T09:25:05.076Z,23.80
2018-09-25T09:27:39.150Z,23.80
2018-09-25T09:30:13.139Z,23.00
2018-09-25T09:32:47.133Z,23.40
2018-09-25T09:35:21.024Z,23.70
2018-09-25T09:37:54.967Z,24.80
2018-09-25T09:40:28.917Z,25.40
2018-09-25T09:43:02.849Z,24.90
2018-09-25T09:45:36.716Z,25.20
2018-09-25T09:48:10.933Z,25.20
2018-09-25T09:50:44.769Z,25.60
2018-09-25T09:53:19.517Z,25.90
2018-09-25T09:55:53.476Z,25.80
2018-09-25T09:58:27.652Z,26.10
2018-09-25T10:01:01.350Z,26.50
2018-09-25T10:03:35.146Z,26.90
2018-09-25T10:06:09.081Z,26.40
2018-09-25T10:08:42.972Z,26.70
2018-09-25T10:11:16.983Z,27.30
2018-09-25T10:13:50.901Z,27.10
2018-09-25T10:16:24.918Z,25.20
2018-09-25T10:18:58.858Z,26.10
2018-09-25T10:21:32.806Z,26.50
2018-09-25T10:24:06.618Z,26.30
2018-09-25T10:26:40.592Z,26.30
2018-09-25T10:29:14.405Z,26.10
2018-09-25T10:31:48.277Z,27.00
2018-09-25T10:34:22.282Z,26.50
2018-09-25T10:36:56.278Z,26.30
2018-09-25T10:39:30.200Z,26.70
2018-09-25T10:42:04.110Z,26.60
2018-09-25T10:44:38.073Z,26.80
2018-09-25T10:47:11.893Z,25.60
2018-09-25T10:49:45.857Z,25.70
2018-09-25T10:52:20.580Z,25.90
2018-09-25T10:54:54.449Z,24.70
2018-09-25T10:57:28.256Z,23.90
2018-09-25T11:00:01.960Z,22.80
2018-09-25T11:02:35.763Z,22.30
2018-09-25T11:05:09.760Z,22.30
2018-09-25T11:07:43.695Z,22.30
2018-09-25T11:10:17.592Z,22.30
2018-09-25T11:12:51.568Z,21.80
2018-09-25T11:15:25.476Z,21.30
2018-09-25T11:17:59.390Z,21.40
2018-09-25T11:20:33.298Z,21.40
2018-09-25T11:23:07.348Z,20.90
2018-09-25T11:25:41.297Z,20.80
2018-09-25T11:28:15.134Z,20.50
2018-09-25T11:30:49.049Z,20.30
2018-09-25T11:33:23.141Z,20.30
2018-09-25T11:35:57.085Z,19.60
2018-09-25T11:38:31.002Z,19.20
2018-09-25T11:41:05.197Z,18.70
2018-09-25T11:43:39.109Z,19.00
2018-09-25T11:46:13.010Z,19.10
2018-09-25T11:48:47.481Z,18.80
2018-09-25T11:51:21.257Z,18.80
2018-09-25T11:53:55.221Z,18.80
2018-09-25T11:56:29.224Z,18.90
2018-09-25T11:59:03.009Z,18.40
2018-09-25T12:01:44.405Z,18.30
2018-09-25T12:04:18.384Z,18.40
2018-09-25T12:06:52.190Z,18.40
2018-09-25T12:09:26.168Z,18.20
2018-09-25T12:12:00.096Z,18.20
2018-09-25T12:14:34.108Z,18.10
2018-09-25T12:17:08.000Z,17.90
2018-09-25T12:19:41.788Z,17.90
2018-09-25T12:22:15.448Z,17.70
2018-09-25T12:24:49.458Z,17.80
2018-09-25T12:27:23.517Z,17.70
2018-09-25T12:29:57.556Z,17.70
2018-09-25T12:32:31.455Z,17.70
2018-09-25T12:35:06.032Z,17.50
2018-09-25T12:37:39.956Z,17.60
2018-09-25T12:40:13.798Z,17.50
2018-09-25T12:42:47.543Z,17.30
2018-09-25T12:45:21.382Z,17.40
2018-09-25T12:47:55.268Z,17.50
2018-09-25T12:50:29.293Z,17.50
2018-09-25T12:53:03.253Z,17.50
2018-09-25T12:55:37.358Z,17.40
2018-09-25T12:58:11.308Z,17.50
2018-09-25T13:00:45.181Z,17.50
2018-09-25T13:03:18.946Z,17.40
2018-09-25T13:05:52.917Z,17.40
2018-09-25T13:08:26.757Z,17.30
2018-09-25T13:11:00.712Z,17.30
2018-09-25T13:13:34.690Z,17.30
2018-09-25T13:16:08.584Z,17.30
2018-09-25T13:18:42.566Z,17.30
2018-09-25T13:21:16.361Z,17.50
2018-09-25T13:23:50.261Z,17.30
2018-09-25T13:26:24.084Z,17.30
2018-09-25T13:28:57.984Z,17.30
2018-09-25T13:31:31.944Z,17.30
2018-09-25T13:34:05.864Z,17.30
2018-09-25T13:36:39.881Z,17.30
2018-09-25T13:39:14.127Z,17.20
2018-09-25T13:41:48.397Z,17.30
2018-09-25T13:44:22.325Z,17.00
2018-09-25T13:46:56.204Z,17.10
2018-09-25T13:49:30.094Z,17.20
2018-09-25T13:52:04.301Z,17.20
2018-09-25T13:54:37.969Z,17.00
2018-09-25T13:57:12.042Z,17.00
2018-09-25T13:59:45.836Z,17.10
2018-09-25T14:02:19.792Z,17.00
2018-09-25T14:04:53.716Z,17.00
2018-09-25T14:07:27.523Z,17.00
2018-09-25T14:10:01.320Z,17.00
2018-09-25T14:12:35.109Z,17.00
2018-09-25T14:15:08.913Z,16.80
2018-09-25T14:17:42.881Z,16.90
2018-09-25T14:20:16.756Z,16.90
2018-09-25T14:22:50.680Z,16.90
2018-09-25T14:25:24.625Z,16.90
2018-09-25T14:27:58.441Z,16.90
2018-09-25T14:30:32.409Z,16.90
2018-09-25T14:33:06.289Z,16.60
2018-09-25T14:35:40.205Z,16.60
2018-09-25T14:38:14.149Z,16.70
2018-09-25T14:40:48.168Z,16.70
2018-09-25T14:43:21.908Z,16.70
2018-09-25T14:45:55.712Z,16.60
2018-09-25T14:48:29.696Z,16.60
2018-09-25T14:51:03.659Z,16.60
2018-09-25T14:53:37.454Z,16.60
2018-09-25T14:56:11.407Z,16.60
2018-09-25T14:58:45.232Z,16.60
2018-09-25T15:01:19.103Z,16.50
2018-09-25T15:03:53.047Z,16.50
2018-09-25T15:06:26.999Z,16.40
2018-09-25T15:09:00.922Z,16.50
2018-09-25T15:11:35.613Z,16.50
2018-09-25T15:14:09.570Z,16.40
2018-09-25T15:16:43.393Z,16.40
2018-09-25T15:19:17.468Z,16.40
2018-09-25T15:21:51.521Z,16.40
2018-09-25T15:24:25.362Z,16.40
2018-09-25T15:26:59.270Z,16.30
2018-09-25T15:29:33.061Z,16.30
2018-09-25T15:32:06.877Z,16.20
2018-09-25T15:34:40.888Z,16.20
2018-09-25T15:37:14.760Z,16.30
2018-09-25T15:39:48.681Z,16.20
2018-09-25T15:42:22.725Z,16.20
2018-09-25T15:44:56.529Z,16.20
2018-09-25T15:47:30.317Z,16.20
2018-09-25T15:50:04.837Z,16.20
2018-09-25T15:52:38.752Z,16.00
2018-09-25T15:55:12.717Z,16.00
2018-09-25T15:57:46.706Z,15.90
2018-09-25T16:00:20.733Z,16.00
2018-09-25T16:02:54.492Z,15.90
2018-09-25T16:05:28.415Z,15.90
2018-09-25T16:08:02.446Z,15.90
2018-09-25T16:10:36.408Z,15.90
2018-09-25T16:13:10.361Z,15.80
2018-09-25T16:15:44.273Z,15.80
2018-09-25T16:18:18.220Z,15.80
2018-09-25T16:20:51.971Z,15.80
2018-09-25T16:23:25.830Z,15.80
2018-09-25T16:25:59.564Z,15.70
2018-09-25T16:28:33.480Z,15.60
2018-09-25T16:31:07.400Z,15.60
2018-09-25T16:33:41.240Z,15.50
2018-09-25T16:36:14.979Z,15.50
2018-09-25T16:38:48.752Z,15.40
2018-09-25T16:41:22.589Z,15.50
2018-09-25T16:43:56.357Z,15.40
2018-09-25T16:46:30.301Z,15.40
2018-09-25T16:49:04.013Z,15.30
2018-09-25T16:51:37.984Z,15.30
2018-09-25T16:54:11.972Z,15.30
2018-09-25T16:56:45.968Z,15.20
2018-09-25T16:59:19.748Z,15.10
2018-09-25T17:01:53.829Z,15.10
2018-09-25T17:04:27.987Z,15.00
2018-09-25T17:07:01.900Z,15.00
2018-09-25T17:09:35.826Z,14.90
2018-09-25T17:12:09.787Z,14.80
2018-09-25T17:14:43.635Z,14.80
2018-09-25T17:17:17.396Z,14.70
2018-09-25T17:19:51.241Z,14.60
2018-09-25T17:22:25.153Z,14.60
2018-09-25T17:24:59.121Z,14.40
2018-09-25T17:27:33.037Z,14.30
2018-09-25T17:30:06.950Z,14.20
2018-09-25T17:32:41.704Z,14.00
2018-09-25T17:35:15.704Z,13.90
2018-09-25T17:37:49.673Z,13.90
2018-09-25T17:40:23.666Z,13.70
2018-09-25T17:42:57.791Z,13.70
2018-09-25T17:45:31.808Z,13.70
2018-09-25T17:48:05.618Z,13.60
2018-09-25T17:50:39.622Z,13.60
2018-09-25T17:53:13.424Z,13.50
2018-09-25T17:55:47.164Z,13.40
2018-09-25T17:58:20.927Z,13.30
2018-09-25T18:00:54.677Z,13.20
2018-09-25T18:03:28.445Z,13.20
2018-09-25T18:06:02.524Z,13.10
2018-09-25T18:08:36.598Z,13.10
2018-09-25T18:11:10.628Z,13.00
2018-09-25T18:13:44.818Z,12.90
2018-09-25T18:16:18.928Z,12.90
2018-09-25T18:18:52.808Z,12.90
2018-09-25T18:21:26.683Z,12.90
2018-09-25T18:24:00.458Z,12.90
2018-09-25T18:26:34.439Z,12.90
2018-09-25T18:29:08.185Z,12.80
2018-09-25T18:31:42.125Z,12.80
2018-09-25T18:34:16.060Z,12.80
2018-09-25T18:36:50.167Z,12.80
2018-09-25T18:39:23.941Z,12.80
2018-09-25T18:41:57.986Z,12.80
2018-09-25T18:44:31.880Z,12.80
2018-09-25T18:47:05.793Z,12.80
2018-09-25T18:49:39.705Z,12.70
2018-09-25T18:52:13.624Z,12.50
2018-09-25T18:54:47.597Z,12.50
2018-09-25T18:57:21.504Z,12.40
2018-09-25T18:59:55.506Z,12.40
2018-09-25T19:02:29.473Z,12.20
2018-09-25T19:05:03.532Z,12.00
2018-09-25T19:07:37.402Z,11.90
2018-09-25T19:10:11.399Z,11.80
2018-09-25T19:12:45.381Z,11.40
2018-09-25T19:15:19.748Z,11.50
2018-09-25T19:17:53.713Z,11.60
2018-09-25T19:20:27.600Z,11.30
2018-09-25T19:23:01.565Z,11.10
2018-09-25T19:25:35.486Z,11.20
2018-09-25T19:28:09.501Z,11.20
2018-09-25T19:30:43.345Z,11.10
2018-09-25T19:33:17.262Z,10.90
2018-09-25T19:35:51.234Z,11.00
2018-09-25T19:38:25.126Z,11.00
2018-09-25T19:40:59.113Z,10.80
2018-09-25T19:43:32.949Z,10.80
2018-09-25T19:46:06.890Z,10.80
2018-09-25T19:48:40.804Z,10.80
2018-09-25T19:51:14.749Z,10.70
2018-09-25T19:53:48.446Z,10.60
2018-09-25T19:56:23.194Z,10.60
2018-09-25T19:58:57.213Z,10.60
2018-09-25T20:01:31.044Z,10.60
2018-09-25T20:04:05.033Z,10.40
2018-09-25T20:06:39.008Z,10.30
2018-09-25T20:09:13.964Z,10.20
2018-09-25T20:11:48.128Z,10.10
2018-09-25T20:14:22.087Z,10.20
2018-09-25T20:16:56.046Z,10.30
2018-09-25T20:19:29.937Z,10.30
2018-09-25T20:22:03.665Z,10.40
2018-09-25T20:24:37.395Z,10.30
2018-09-25T20:27:11.261Z,10.50
2018-09-25T20:29:45.121Z,10.50
2018-09-25T20:32:18.863Z,10.60
2018-09-25T20:34:52.786Z,10.60
2018-09-25T20:37:26.628Z,10.80
2018-09-25T20:40:00.536Z,11.20
2018-09-25T20:42:34.226Z,11.30
2018-09-25T20:45:08.148Z,11.40
2018-09-25T20:47:41.987Z,11.30
2018-09-25T20:50:15.713Z,11.30
2018-09-25T20:52:49.540Z,11.30
2018-09-25T20:55:23.596Z,11.30
2018-09-25T20:57:57.458Z,11.30
2018-09-25T21:00:31.324Z,11.20
2018-09-25T21:03:05.056Z,11.20
2018-09-25T21:05:38.848Z,11.20
2018-09-25T21:08:12.636Z,11.20
2018-09-25T21:10:46.557Z,11.10
2018-09-25T21:13:20.429Z,11.10
2018-09-25T21:15:54.195Z,11.10
2018-09-25T21:18:28.034Z,11.00
2018-09-25T21:21:01.968Z,11.00
2018-09-25T21:23:35.811Z,10.90
2018-09-25T21:26:09.732Z,10.90
2018-09-25T21:28:43.759Z,10.90
2018-09-25T21:31:17.433Z,10.80
2018-09-25T21:33:51.401Z,10.80
2018-09-25T21:36:25.322Z,10.80
2018-09-25T21:38:59.443Z,10.70
2018-09-25T21:41:33.403Z,10.60
2018-09-25T21:44:07.170Z,10.60
2018-09-25T21:46:41.104Z,10.70
2018-09-25T21:49:14.997Z,10.70
2018-09-25T21:51:48.962Z,10.60
2018-09-25T21:54:22.735Z,10.70
2018-09-25T21:56:56.731Z,10.80
2018-09-25T21:59:30.564Z,10.90
2018-09-25T22:02:04.494Z,10.80
2018-09-25T22:04:38.397Z,11.10
2018-09-25T22:07:12.337Z,11.10
2018-09-25T22:09:46.256Z,11.20
2018-09-25T22:12:20.197Z,11.30
2018-09-25T22:14:54.142Z,11.20
2018-09-25T22:17:28.093Z,11.30
2018-09-25T22:20:01.897Z,11.40
2018-09-25T22:22:35.739Z,11.40
2018-09-25T22:25:10.121Z,11.60
2018-09-25T22:27:43.940Z,11.60
2018-09-25T22:30:17.837Z,11.50
2018-09-25T22:32:51.829Z,11.50
2018-09-25T22:35:25.541Z,11.50
2018-09-25T22:37:59.453Z,11.50
2018-09-25T22:40:33.333Z,11.50
2018-09-25T22:43:07.095Z,11.50
2018-09-25T22:45:41.013Z,11.50
2018-09-25T22:48:14.949Z,11.50
2018-09-25T22:50:48.721Z,11.30
2018-09-25T22:53:22.387Z,11.30
2018-09-25T22:55:56.282Z,11.20
2018-09-25T22:58:30.123Z,11.00
2018-09-25T23:01:03.785Z,10.90
2018-09-25T23:03:37.606Z,10.90
2018-09-25T23:06:11.546Z,10.90
2018-09-25T23:08:45.257Z,10.80
2018-09-25T23:11:19.149Z,10.80
2018-09-25T23:13:53.090Z,10.50
2018-09-25T23:16:26.985Z,10.30
2018-09-25T23:19:00.927Z,10.30
2018-09-25T23:21:34.694Z,10.20
2018-09-25T23:24:08.653Z,10.10
2018-09-25T23:26:42.869Z,10.10
2018-09-25T23:29:16.762Z,9.80
2018-09-25T23:31:50.682Z,9.70
2018-09-25T23:34:24.618Z,9.70
2018-09-25T23:36:58.533Z,9.60
2018-09-25T23:39:34.276Z,9.50
2018-09-25T23:42:09.890Z,9.30
2018-09-25T23:44:44.632Z,9.20
2018-09-25T23:47:26.398Z,9.20
2018-09-25T23:50:00.227Z,9.10
2018-09-25T23:52:38.817Z,8.80
2018-09-25T23:55:12.828Z,8.80
2018-09-25T23:57:46.445Z,8.80
